createdAt,value
2023-03-23T16:01:18.349Z,1.20
2023-03-23T16:06:25.136Z,1.40
2023-03-23T16:11:31.227Z,1.17
2023-03-23T16:16:38.447Z,1.20
2023-03-23T16:21:41.987Z,1.30
2023-03-23T16:26:44.878Z,1.03
2023-03-23T16:31:49.537Z,1.10
2023-03-23T16:36:52.556Z,1.10
2023-03-23T16:41:55.509Z,1.20
2023-03-23T16:46:59.813Z,1.10
2023-03-23T16:52:02.740Z,1.27
2023-03-23T16:57:06.529Z,1.40
2023-03-23T17:02:12.480Z,1.20
2023-03-23T17:07:15.970Z,0.93
2023-03-23T17:12:19.197Z,1.20
2023-03-23T17:17:24.392Z,1.10
2023-03-23T17:22:27.568Z,0.93
2023-03-23T17:27:30.810Z,1.10
2023-03-23T17:32:36.642Z,1.27
2023-03-23T17:37:39.649Z,0.97
2023-03-23T17:42:42.700Z,1.53
2023-03-23T17:47:47.058Z,1.30
2023-03-23T17:52:50.448Z,1.40
2023-03-23T17:57:53.396Z,1.70
2023-03-23T18:02:57.672Z,1.60
2023-03-23T18:08:00.867Z,1.70
2023-03-23T18:13:03.919Z,2.13
2023-03-23T18:18:08.185Z,2.67
2023-03-23T18:23:11.314Z,2.70
2023-03-23T18:28:14.223Z,2.40
2023-03-23T18:33:20.376Z,2.60
2023-03-23T18:38:23.398Z,2.67
2023-03-23T18:43:26.378Z,2.50
2023-03-23T18:48:30.662Z,3.00
2023-03-23T18:53:33.777Z,2.90
2023-03-23T18:58:37.733Z,2.40
2023-03-23T19:03:42.328Z,2.80
2023-03-23T19:08:45.991Z,2.50
2023-03-23T19:14:00.376Z,2.60
2023-03-23T19:19:07.777Z,2.90
2023-03-23T19:24:11.218Z,3.70
2023-03-23T19:34:24.535Z,3.87
2023-03-23T19:39:27.974Z,3.50
2023-03-23T19:44:30.879Z,3.10
2023-03-23T19:49:35.194Z,3.20
2023-03-23T19:54:38.715Z,2.57
2023-03-23T19:59:42.254Z,2.30
2023-03-23T20:04:46.947Z,2.37
2023-03-23T20:09:50.032Z,2.90
2023-03-23T20:14:53.192Z,3.83
2023-03-23T20:19:57.899Z,4.27
2023-03-23T20:25:01.056Z,4.00
2023-03-23T20:30:06.189Z,3.50
2023-03-23T20:35:13.118Z,3.33
2023-03-23T20:40:16.000Z,2.83
2023-03-23T20:45:20.177Z,2.27
2023-03-23T20:50:24.480Z,1.70
2023-03-23T20:55:27.813Z,1.57
2023-03-23T21:00:30.797Z,1.57
2023-03-23T21:05:35.467Z,1.37
2023-03-23T21:10:39.421Z,1.50
2023-03-23T21:15:43.242Z,1.40
2023-03-23T21:20:47.917Z,1.33
2023-03-23T21:25:50.882Z,1.60
2023-03-23T21:30:54.697Z,1.30
2023-03-23T21:36:00.433Z,1.43
2023-03-23T21:41:08.996Z,1.60
2023-03-23T21:46:14.038Z,1.60
2023-03-23T21:51:21.171Z,1.57
2023-03-23T21:56:27.236Z,1.93
2023-03-23T22:01:30.526Z,2.00
2023-03-23T22:06:35.301Z,2.07
2023-03-23T22:11:39.968Z,2.20
2023-03-23T22:16:43.134Z,2.37
2023-03-23T22:21:47.638Z,2.47
2023-03-23T22:26:50.947Z,2.23
2023-03-23T22:31:54.066Z,2.17
2023-03-23T22:36:58.372Z,2.43
2023-03-23T22:42:01.463Z,2.43
2023-03-23T22:47:04.466Z,2.40
2023-03-23T22:52:08.824Z,2.50
2023-03-23T22:57:11.919Z,2.43
2023-03-23T23:02:14.984Z,2.10
2023-03-23T23:07:19.359Z,2.50
2023-03-23T23:12:22.405Z,2.03
2023-03-23T23:17:26.572Z,2.00
2023-03-23T23:22:31.308Z,2.37
2023-03-23T23:27:34.929Z,2.30
2023-03-23T23:32:38.133Z,2.60
2023-03-23T23:37:42.490Z,2.20
2023-03-23T23:42:46.996Z,2.23
2023-03-23T23:47:50.438Z,2.00
2023-03-23T23:52:55.067Z,2.00
2023-03-23T23:57:57.976Z,2.30
